sensor_id;sensor_type;location;lat;lon;timestamp;P1;durP1;ratioP1;P2;durP2;ratioP2
32236;SDS011;18726;44.732;10.550;2023-12-07T00:02:44;27.15;;;22.27;;
32236;SDS011;18726;44.732;10.550;2023-12-07T00:05:48;26.58;;;21.75;;
32236;SDS011;18726;44.732;10.550;2023-12-07T00:08:52;24.67;;;21.33;;
32236;SDS011;18726;44.732;10.550;2023-12-07T00:11:56;25.55;;;19.38;;
32236;SDS011;18726;44.732;10.550;2023-12-07T00:15:00;24.25;;;19.45;;
32236;SDS011;18726;44.732;10.550;2023-12-07T00:18:04;28.20;;;20.77;;
32236;SDS011;18726;44.732;10.550;2023-12-07T00:21:08;23.08;;;19.17;;
32236;SDS011;18726;44.732;10.550;2023-12-07T00:24:12;25.52;;;19.33;;
32236;SDS011;18726;44.732;10.550;2023-12-07T00:27:15;27.70;;;19.10;;
32236;SDS011;18726;44.732;10.550;2023-12-07T00:30:19;22.70;;;18.90;;
32236;SDS011;18726;44.732;10.550;2023-12-07T00:33:23;24.23;;;20.08;;
32236;SDS011;18726;44.732;10.550;2023-12-07T00:36:26;30.10;;;21.40;;
32236;SDS011;18726;44.732;10.550;2023-12-07T00:39:30;39.42;;;24.85;;
32236;SDS011;18726;44.732;10.550;2023-12-07T00:42:33;26.60;;;22.33;;
32236;SDS011;18726;44.732;10.550;2023-12-07T00:45:37;31.88;;;25.08;;
32236;SDS011;18726;44.732;10.550;2023-12-07T00:48:41;34.15;;;24.75;;
32236;SDS011;18726;44.732;10.550;2023-12-07T00:51:45;33.50;;;24.08;;
32236;SDS011;18726;44.732;10.550;2023-12-07T00:54:48;36.17;;;25.70;;
32236;SDS011;18726;44.732;10.550;2023-12-07T00:57:52;25.27;;;19.08;;
32236;SDS011;18726;44.732;10.550;2023-12-07T01:00:55;26.48;;;19.92;;
32236;SDS011;18726;44.732;10.550;2023-12-07T01:03:59;23.55;;;19.67;;
32236;SDS011;18726;44.732;10.550;2023-12-07T01:07:02;29.30;;;20.85;;
32236;SDS011;18726;44.732;10.550;2023-12-07T01:10:06;27.15;;;21.25;;
32236;SDS011;18726;44.732;10.550;2023-12-07T01:13:10;25.58;;;22.45;;
32236;SDS011;18726;44.732;10.550;2023-12-07T01:16:14;24.85;;;20.27;;
32236;SDS011;18726;44.732;10.550;2023-12-07T01:19:18;22.77;;;20.17;;
32236;SDS011;18726;44.732;10.550;2023-12-07T01:22:21;27.23;;;20.70;;
32236;SDS011;18726;44.732;10.550;2023-12-07T01:25:24;31.88;;;24.48;;
32236;SDS011;18726;44.732;10.550;2023-12-07T01:28:28;24.88;;;22.08;;
32236;SDS011;18726;44.732;10.550;2023-12-07T01:31:32;30.23;;;24.17;;
32236;SDS011;18726;44.732;10.550;2023-12-07T01:34:36;31.10;;;22.92;;
32236;SDS011;18726;44.732;10.550;2023-12-07T01:37:40;26.75;;;23.50;;
32236;SDS011;18726;44.732;10.550;2023-12-07T01:40:43;26.85;;;21.95;;
32236;SDS011;18726;44.732;10.550;2023-12-07T01:43:47;24.75;;;20.77;;
32236;SDS011;18726;44.732;10.550;2023-12-07T01:46:51;23.98;;;20.05;;
32236;SDS011;18726;44.732;10.550;2023-12-07T01:49:55;28.88;;;22.23;;
32236;SDS011;18726;44.732;10.550;2023-12-07T01:53:02;28.80;;;21.27;;
32236;SDS011;18726;44.732;10.550;2023-12-07T01:56:07;26.70;;;23.38;;
32236;SDS011;18726;44.732;10.550;2023-12-07T01:59:12;26.60;;;22.20;;
32236;SDS011;18726;44.732;10.550;2023-12-07T02:02:15;24.02;;;20.70;;
32236;SDS011;18726;44.732;10.550;2023-12-07T02:05:20;21.33;;;19.13;;
32236;SDS011;18726;44.732;10.550;2023-12-07T02:08:23;19.77;;;16.65;;
32236;SDS011;18726;44.732;10.550;2023-12-07T02:11:27;18.90;;;15.07;;
32236;SDS011;18726;44.732;10.550;2023-12-07T02:14:31;19.58;;;15.60;;
32236;SDS011;18726;44.732;10.550;2023-12-07T02:21:03;17.27;;;15.23;;
32236;SDS011;18726;44.732;10.550;2023-12-07T02:24:16;15.25;;;13.60;;
32236;SDS011;18726;44.732;10.550;2023-12-07T02:27:37;18.08;;;14.70;;
32236;SDS011;18726;44.732;10.550;2023-12-07T02:30:42;13.45;;;12.02;;
32236;SDS011;18726;44.732;10.550;2023-12-07T02:33:45;14.85;;;12.20;;
32236;SDS011;18726;44.732;10.550;2023-12-07T02:36:50;12.75;;;11.55;;
32236;SDS011;18726;44.732;10.550;2023-12-07T02:39:56;14.57;;;13.10;;
32236;SDS011;18726;44.732;10.550;2023-12-07T02:43:02;14.40;;;12.43;;
32236;SDS011;18726;44.732;10.550;2023-12-07T02:46:06;18.27;;;13.88;;
32236;SDS011;18726;44.732;10.550;2023-12-07T02:49:10;15.63;;;12.43;;
32236;SDS011;18726;44.732;10.550;2023-12-07T02:52:14;12.00;;;10.77;;
32236;SDS011;18726;44.732;10.550;2023-12-07T02:55:18;11.70;;;10.60;;
32236;SDS011;18726;44.732;10.550;2023-12-07T02:58:22;11.82;;;10.63;;
32236;SDS011;18726;44.732;10.550;2023-12-07T03:01:25;13.57;;;12.05;;
32236;SDS011;18726;44.732;10.550;2023-12-07T03:04:29;13.40;;;11.40;;
32236;SDS011;18726;44.732;10.550;2023-12-07T03:07:33;15.02;;;12.43;;
32236;SDS011;18726;44.732;10.550;2023-12-07T03:10:38;12.93;;;11.32;;
32236;SDS011;18726;44.732;10.550;2023-12-07T03:13:41;14.32;;;12.82;;
32236;SDS011;18726;44.732;10.550;2023-12-07T03:16:44;13.00;;;11.13;;
32236;SDS011;18726;44.732;10.550;2023-12-07T03:19:48;13.27;;;11.95;;
32236;SDS011;18726;44.732;10.550;2023-12-07T03:22:52;12.10;;;10.90;;
32236;SDS011;18726;44.732;10.550;2023-12-07T03:25:56;11.88;;;10.32;;
32236;SDS011;18726;44.732;10.550;2023-12-07T03:28:59;11.80;;;10.60;;
32236;SDS011;18726;44.732;10.550;2023-12-07T03:32:04;13.07;;;11.68;;
32236;SDS011;18726;44.732;10.550;2023-12-07T03:35:07;12.32;;;10.52;;
32236;SDS011;18726;44.732;10.550;2023-12-07T03:38:11;12.15;;;10.85;;
32236;SDS011;18726;44.732;10.550;2023-12-07T03:41:15;12.18;;;11.07;;
32236;SDS011;18726;44.732;10.550;2023-12-07T03:44:19;12.15;;;10.43;;
32236;SDS011;18726;44.732;10.550;2023-12-07T03:47:22;11.98;;;10.82;;
32236;SDS011;18726;44.732;10.550;2023-12-07T03:50:26;10.98;;;9.88;;
32236;SDS011;18726;44.732;10.550;2023-12-07T03:53:30;10.10;;;9.13;;
32236;SDS011;18726;44.732;10.550;2023-12-07T03:56:34;11.27;;;9.68;;
32236;SDS011;18726;44.732;10.550;2023-12-07T03:59:37;10.85;;;9.50;;
32236;SDS011;18726;44.732;10.550;2023-12-07T04:02:41;12.75;;;10.63;;
32236;SDS011;18726;44.732;10.550;2023-12-07T04:05:45;12.98;;;10.38;;
32236;SDS011;18726;44.732;10.550;2023-12-07T04:08:49;10.38;;;9.32;;
32236;SDS011;18726;44.732;10.550;2023-12-07T04:11:53;14.23;;;9.07;;
32236;SDS011;18726;44.732;10.550;2023-12-07T04:14:56;8.40;;;7.50;;
32236;SDS011;18726;44.732;10.550;2023-12-07T04:18:00;9.13;;;8.32;;
32236;SDS011;18726;44.732;10.550;2023-12-07T04:21:04;9.38;;;8.40;;
32236;SDS011;18726;44.732;10.550;2023-12-07T04:24:09;8.20;;;7.50;;
32236;SDS011;18726;44.732;10.550;2023-12-07T04:27:12;9.10;;;8.30;;
32236;SDS011;18726;44.732;10.550;2023-12-07T04:30:16;9.60;;;8.70;;
32236;SDS011;18726;44.732;10.550;2023-12-07T04:33:19;9.73;;;8.82;;
32236;SDS011;18726;44.732;10.550;2023-12-07T04:36:23;9.60;;;8.63;;
32236;SDS011;18726;44.732;10.550;2023-12-07T04:39:26;9.38;;;8.48;;
32236;SDS011;18726;44.732;10.550;2023-12-07T04:42:30;8.80;;;7.90;;
32236;SDS011;18726;44.732;10.550;2023-12-07T04:45:33;8.60;;;7.72;;
32236;SDS011;18726;44.732;10.550;2023-12-07T04:52:57;9.10;;;8.23;;
32236;SDS011;18726;44.732;10.550;2023-12-07T04:56:01;8.20;;;7.45;;
32236;SDS011;18726;44.732;10.550;2023-12-07T04:59:04;9.57;;;8.55;;
32236;SDS011;18726;44.732;10.550;2023-12-07T05:02:09;10.30;;;9.30;;
32236;SDS011;18726;44.732;10.550;2023-12-07T05:05:12;10.60;;;9.50;;
32236;SDS011;18726;44.732;10.550;2023-12-07T05:08:16;10.07;;;9.07;;
32236;SDS011;18726;44.732;10.550;2023-12-07T05:11:21;9.13;;;8.27;;
32236;SDS011;18726;44.732;10.550;2023-12-07T05:14:25;11.20;;;10.07;;
32236;SDS011;18726;44.732;10.550;2023-12-07T05:17:29;34.22;;;24.92;;
32236;SDS011;18726;44.732;10.550;2023-12-07T05:20:32;24.88;;;21.98;;
32236;SDS011;18726;44.732;10.550;2023-12-07T05:23:37;23.00;;;18.38;;
32236;SDS011;18726;44.732;10.550;2023-12-07T05:26:41;19.30;;;17.48;;
32236;SDS011;18726;44.732;10.550;2023-12-07T05:29:46;14.02;;;12.70;;
32236;SDS011;18726;44.732;10.550;2023-12-07T05:32:49;13.98;;;12.68;;
32236;SDS011;18726;44.732;10.550;2023-12-07T05:35:53;13.50;;;12.20;;
32236;SDS011;18726;44.732;10.550;2023-12-07T05:38:57;16.63;;;13.95;;
32236;SDS011;18726;44.732;10.550;2023-12-07T05:42:01;15.65;;;11.93;;
32236;SDS011;18726;44.732;10.550;2023-12-07T05:45:04;14.43;;;12.05;;
32236;SDS011;18726;44.732;10.550;2023-12-07T05:48:10;9.63;;;8.70;;
32236;SDS011;18726;44.732;10.550;2023-12-07T05:51:15;10.88;;;9.82;;
32236;SDS011;18726;44.732;10.550;2023-12-07T05:54:20;10.02;;;9.13;;
32236;SDS011;18726;44.732;10.550;2023-12-07T05:57:26;8.70;;;7.88;;
32236;SDS011;18726;44.732;10.550;2023-12-07T06:00:30;9.75;;;7.20;;
32236;SDS011;18726;44.732;10.550;2023-12-07T06:03:34;7.90;;;6.78;;
32236;SDS011;18726;44.732;10.550;2023-12-07T06:06:38;8.75;;;7.68;;
32236;SDS011;18726;44.732;10.550;2023-12-07T06:09:42;9.75;;;8.75;;
32236;SDS011;18726;44.732;10.550;2023-12-07T06:12:46;9.30;;;8.40;;
32236;SDS011;18726;44.732;10.550;2023-12-07T06:15:49;9.38;;;8.43;;
32236;SDS011;18726;44.732;10.550;2023-12-07T06:18:53;10.27;;;9.27;;
32236;SDS011;18726;44.732;10.550;2023-12-07T06:21:57;11.98;;;10.38;;
32236;SDS011;18726;44.732;10.550;2023-12-07T06:25:00;10.88;;;9.88;;
32236;SDS011;18726;44.732;10.550;2023-12-07T06:28:04;13.85;;;10.45;;
32236;SDS011;18726;44.732;10.550;2023-12-07T06:31:08;15.05;;;12.68;;
32236;SDS011;18726;44.732;10.550;2023-12-07T06:34:12;13.20;;;11.90;;
32236;SDS011;18726;44.732;10.550;2023-12-07T06:37:15;14.30;;;12.80;;
32236;SDS011;18726;44.732;10.550;2023-12-07T06:40:21;73.55;;;45.25;;
32236;SDS011;18726;44.732;10.550;2023-12-07T06:43:24;52.08;;;36.08;;
32236;SDS011;18726;44.732;10.550;2023-12-07T06:46:28;33.40;;;24.88;;
32236;SDS011;18726;44.732;10.550;2023-12-07T06:49:32;21.27;;;18.88;;
32236;SDS011;18726;44.732;10.550;2023-12-07T06:52:36;19.13;;;16.23;;
32236;SDS011;18726;44.732;10.550;2023-12-07T06:55:40;13.63;;;12.10;;
32236;SDS011;18726;44.732;10.550;2023-12-07T06:58:45;10.23;;;9.23;;
32236;SDS011;18726;44.732;10.550;2023-12-07T07:01:48;22.63;;;14.15;;
32236;SDS011;18726;44.732;10.550;2023-12-07T07:04:52;13.00;;;10.90;;
32236;SDS011;18726;44.732;10.550;2023-12-07T07:07:56;10.98;;;9.73;;
32236;SDS011;18726;44.732;10.550;2023-12-07T07:11:00;31.75;;;17.63;;
32236;SDS011;18726;44.732;10.550;2023-12-07T07:14:03;17.45;;;13.07;;
32236;SDS011;18726;44.732;10.550;2023-12-07T07:17:07;14.57;;;10.95;;
32236;SDS011;18726;44.732;10.550;2023-12-07T07:20:11;18.55;;;14.63;;
32236;SDS011;18726;44.732;10.550;2023-12-07T07:23:14;41.47;;;30.73;;
32236;SDS011;18726;44.732;10.550;2023-12-07T07:26:18;32.47;;;23.13;;
32236;SDS011;18726;44.732;10.550;2023-12-07T07:29:21;19.35;;;13.10;;
32236;SDS011;18726;44.732;10.550;2023-12-07T07:32:25;39.47;;;24.95;;
32236;SDS011;18726;44.732;10.550;2023-12-07T07:35:29;14.90;;;11.00;;
32236;SDS011;18726;44.732;10.550;2023-12-07T07:38:33;16.90;;;11.63;;
32236;SDS011;18726;44.732;10.550;2023-12-07T07:41:36;11.90;;;8.50;;
32236;SDS011;18726;44.732;10.550;2023-12-07T07:44:39;10.40;;;6.00;;
32236;SDS011;18726;44.732;10.550;2023-12-07T07:47:43;16.67;;;13.25;;
32236;SDS011;18726;44.732;10.550;2023-12-07T07:50:47;32.58;;;25.80;;
32236;SDS011;18726;44.732;10.550;2023-12-07T07:53:51;28.00;;;22.80;;
32236;SDS011;18726;44.732;10.550;2023-12-07T07:56:55;20.08;;;16.20;;
32236;SDS011;18726;44.732;10.550;2023-12-07T07:59:58;18.52;;;13.77;;
32236;SDS011;18726;44.732;10.550;2023-12-07T08:03:02;11.77;;;9.30;;
32236;SDS011;18726;44.732;10.550;2023-12-07T08:06:06;9.65;;;8.05;;
32236;SDS011;18726;44.732;10.550;2023-12-07T08:09:10;10.13;;;8.40;;
32236;SDS011;18726;44.732;10.550;2023-12-07T08:12:14;11.15;;;8.80;;
32236;SDS011;18726;44.732;10.550;2023-12-07T08:15:18;11.18;;;8.82;;
32236;SDS011;18726;44.732;10.550;2023-12-07T08:18:22;11.68;;;7.15;;
32236;SDS011;18726;44.732;10.550;2023-12-07T08:21:26;6.72;;;6.05;;
32236;SDS011;18726;44.732;10.550;2023-12-07T08:24:30;8.55;;;7.82;;
32236;SDS011;18726;44.732;10.550;2023-12-07T08:27:33;6.28;;;5.68;;
32236;SDS011;18726;44.732;10.550;2023-12-07T08:30:37;13.48;;;10.18;;
32236;SDS011;18726;44.732;10.550;2023-12-07T08:33:41;21.98;;;15.77;;
32236;SDS011;18726;44.732;10.550;2023-12-07T08:36:45;7.05;;;6.45;;
32236;SDS011;18726;44.732;10.550;2023-12-07T08:39:49;7.53;;;6.10;;
32236;SDS011;18726;44.732;10.550;2023-12-07T08:42:54;20.92;;;16.58;;
32236;SDS011;18726;44.732;10.550;2023-12-07T08:45:58;17.40;;;12.38;;
32236;SDS011;18726;44.732;10.550;2023-12-07T08:49:01;11.93;;;7.70;;
32236;SDS011;18726;44.732;10.550;2023-12-07T08:52:05;30.70;;;23.83;;
32236;SDS011;18726;44.732;10.550;2023-12-07T08:55:09;19.27;;;15.57;;
32236;SDS011;18726;44.732;10.550;2023-12-07T08:58:13;19.63;;;14.00;;
32236;SDS011;18726;44.732;10.550;2023-12-07T09:01:16;17.58;;;11.88;;
32236;SDS011;18726;44.732;10.550;2023-12-07T09:04:20;10.52;;;8.23;;
32236;SDS011;18726;44.732;10.550;2023-12-07T09:07:24;7.47;;;6.32;;
32236;SDS011;18726;44.732;10.550;2023-12-07T09:10:28;15.48;;;8.77;;
32236;SDS011;18726;44.732;10.550;2023-12-07T09:13:32;13.32;;;7.75;;
32236;SDS011;18726;44.732;10.550;2023-12-07T09:16:35;27.88;;;18.50;;
32236;SDS011;18726;44.732;10.550;2023-12-07T09:22:49;31.65;;;18.92;;
32236;SDS011;18726;44.732;10.550;2023-12-07T09:25:53;27.30;;;14.10;;
32236;SDS011;18726;44.732;10.550;2023-12-07T09:28:57;15.07;;;10.00;;
32236;SDS011;18726;44.732;10.550;2023-12-07T09:32:01;42.92;;;33.50;;
32236;SDS011;18726;44.732;10.550;2023-12-07T09:35:04;18.83;;;13.18;;
32236;SDS011;18726;44.732;10.550;2023-12-07T09:38:13;20.13;;;10.20;;
32236;SDS011;18726;44.732;10.550;2023-12-07T09:41:16;9.60;;;8.50;;
32236;SDS011;18726;44.732;10.550;2023-12-07T09:44:20;12.45;;;8.55;;
32236;SDS011;18726;44.732;10.550;2023-12-07T09:47:27;21.10;;;14.45;;
32236;SDS011;18726;44.732;10.550;2023-12-07T09:50:31;15.77;;;11.80;;
32236;SDS011;18726;44.732;10.550;2023-12-07T09:53:35;36.55;;;28.13;;
32236;SDS011;18726;44.732;10.550;2023-12-07T09:56:43;16.80;;;13.95;;
32236;SDS011;18726;44.732;10.550;2023-12-07T09:59:47;14.85;;;12.98;;
32236;SDS011;18726;44.732;10.550;2023-12-07T10:02:51;17.67;;;13.10;;
32236;SDS011;18726;44.732;10.550;2023-12-07T10:05:56;16.50;;;14.90;;
32236;SDS011;18726;44.732;10.550;2023-12-07T10:09:03;17.50;;;13.80;;
32236;SDS011;18726;44.732;10.550;2023-12-07T10:12:07;15.93;;;14.13;;
32236;SDS011;18726;44.732;10.550;2023-12-07T10:15:15;14.52;;;12.30;;
32236;SDS011;18726;44.732;10.550;2023-12-07T10:18:23;13.63;;;11.70;;
32236;SDS011;18726;44.732;10.550;2023-12-07T10:21:31;18.20;;;12.27;;
32236;SDS011;18726;44.732;10.550;2023-12-07T10:24:36;16.65;;;14.93;;
32236;SDS011;18726;44.732;10.550;2023-12-07T10:27:40;15.77;;;14.20;;
32236;SDS011;18726;44.732;10.550;2023-12-07T10:30:50;21.00;;;18.90;;
32236;SDS011;18726;44.732;10.550;2023-12-07T10:33:55;16.90;;;15.35;;
32236;SDS011;18726;44.732;10.550;2023-12-07T10:37:00;20.30;;;18.20;;
32236;SDS011;18726;44.732;10.550;2023-12-07T10:40:04;22.85;;;20.48;;
32236;SDS011;18726;44.732;10.550;2023-12-07T10:43:09;23.80;;;20.58;;
32236;SDS011;18726;44.732;10.550;2023-12-07T10:46:15;21.45;;;19.40;;
32236;SDS011;18726;44.732;10.550;2023-12-07T10:49:23;21.77;;;19.52;;
32236;SDS011;18726;44.732;10.550;2023-12-07T10:52:31;26.65;;;21.52;;
32236;SDS011;18726;44.732;10.550;2023-12-07T10:55:40;22.08;;;17.55;;
32236;SDS011;18726;44.732;10.550;2023-12-07T10:58:49;21.80;;;19.73;;
32236;SDS011;18726;44.732;10.550;2023-12-07T11:01:53;22.50;;;20.02;;
32236;SDS011;18726;44.732;10.550;2023-12-07T11:05:00;21.13;;;18.95;;
32236;SDS011;18726;44.732;10.550;2023-12-07T11:08:06;62.65;;;46.17;;
32236;SDS011;18726;44.732;10.550;2023-12-07T11:11:29;32.38;;;29.15;;
32236;SDS011;18726;44.732;10.550;2023-12-07T11:14:36;29.85;;;26.60;;
32236;SDS011;18726;44.732;10.550;2023-12-07T11:17:54;23.40;;;20.98;;
32236;SDS011;18726;44.732;10.550;2023-12-07T11:20:59;22.95;;;18.90;;
32236;SDS011;18726;44.732;10.550;2023-12-07T11:24:03;22.70;;;19.20;;
32236;SDS011;18726;44.732;10.550;2023-12-07T11:30:41;21.67;;;19.35;;
32236;SDS011;18726;44.732;10.550;2023-12-07T11:33:47;22.35;;;19.90;;
32236;SDS011;18726;44.732;10.550;2023-12-07T11:36:54;26.90;;;20.60;;
32236;SDS011;18726;44.732;10.550;2023-12-07T11:39:59;21.88;;;19.05;;
32236;SDS011;18726;44.732;10.550;2023-12-07T11:43:04;22.63;;;17.90;;
32236;SDS011;18726;44.732;10.550;2023-12-07T11:46:09;21.27;;;18.35;;
32236;SDS011;18726;44.732;10.550;2023-12-07T11:49:15;22.92;;;18.83;;
32236;SDS011;18726;44.732;10.550;2023-12-07T11:52:19;21.13;;;18.90;;
32236;SDS011;18726;44.732;10.550;2023-12-07T11:55:25;24.85;;;19.13;;
32236;SDS011;18726;44.732;10.550;2023-12-07T11:58:32;25.25;;;18.25;;
32236;SDS011;18726;44.732;10.550;2023-12-07T12:01:38;21.75;;;19.50;;
32236;SDS011;18726;44.732;10.550;2023-12-07T12:04:43;21.30;;;18.85;;
32236;SDS011;18726;44.732;10.550;2023-12-07T12:07:47;25.63;;;19.10;;
32236;SDS011;18726;44.732;10.550;2023-12-07T12:10:55;26.73;;;23.40;;
32236;SDS011;18726;44.732;10.550;2023-12-07T12:14:03;22.30;;;18.45;;
32236;SDS011;18726;44.732;10.550;2023-12-07T12:17:08;26.45;;;19.13;;
32236;SDS011;18726;44.732;10.550;2023-12-07T12:20:13;25.60;;;18.67;;
32236;SDS011;18726;44.732;10.550;2023-12-07T12:23:22;22.15;;;18.40;;
32236;SDS011;18726;44.732;10.550;2023-12-07T12:26:27;46.38;;;41.30;;
32236;SDS011;18726;44.732;10.550;2023-12-07T12:29:32;42.78;;;38.42;;
32236;SDS011;18726;44.732;10.550;2023-12-07T12:32:44;23.50;;;20.05;;
32236;SDS011;18726;44.732;10.550;2023-12-07T12:39:05;21.27;;;18.33;;
32236;SDS011;18726;44.732;10.550;2023-12-07T12:42:11;23.33;;;19.45;;
32236;SDS011;18726;44.732;10.550;2023-12-07T12:45:17;28.35;;;19.48;;
32236;SDS011;18726;44.732;10.550;2023-12-07T12:48:22;20.38;;;18.20;;
32236;SDS011;18726;44.732;10.550;2023-12-07T12:51:28;24.23;;;19.95;;
32236;SDS011;18726;44.732;10.550;2023-12-07T12:54:35;21.20;;;16.40;;
32236;SDS011;18726;44.732;10.550;2023-12-07T12:57:40;18.40;;;14.13;;
32236;SDS011;18726;44.732;10.550;2023-12-07T13:00:46;23.83;;;14.63;;
32236;SDS011;18726;44.732;10.550;2023-12-07T13:03:52;17.42;;;14.63;;
32236;SDS011;18726;44.732;10.550;2023-12-07T13:06:56;19.25;;;13.82;;
32236;SDS011;18726;44.732;10.550;2023-12-07T13:10:01;16.23;;;14.63;;
32236;SDS011;18726;44.732;10.550;2023-12-07T13:13:07;18.52;;;14.35;;
32236;SDS011;18726;44.732;10.550;2023-12-07T13:16:12;20.75;;;15.23;;
32236;SDS011;18726;44.732;10.550;2023-12-07T13:19:19;18.77;;;16.42;;
32236;SDS011;18726;44.732;10.550;2023-12-07T13:22:24;16.40;;;14.70;;
32236;SDS011;18726;44.732;10.550;2023-12-07T13:25:29;24.73;;;20.00;;
32236;SDS011;18726;44.732;10.550;2023-12-07T13:28:34;22.17;;;19.88;;
32236;SDS011;18726;44.732;10.550;2023-12-07T13:31:37;28.05;;;20.27;;
32236;SDS011;18726;44.732;10.550;2023-12-07T13:34:41;26.83;;;22.77;;
32236;SDS011;18726;44.732;10.550;2023-12-07T13:37:47;32.17;;;28.58;;
32236;SDS011;18726;44.732;10.550;2023-12-07T13:40:52;32.35;;;24.55;;
32236;SDS011;18726;44.732;10.550;2023-12-07T13:43:55;32.10;;;25.55;;
32236;SDS011;18726;44.732;10.550;2023-12-07T13:47:01;111.68;;;81.00;;
32236;SDS011;18726;44.732;10.550;2023-12-07T13:50:06;72.35;;;51.50;;
32236;SDS011;18726;44.732;10.550;2023-12-07T13:53:11;32.03;;;24.92;;
32236;SDS011;18726;44.732;10.550;2023-12-07T13:56:17;27.63;;;18.88;;
32236;SDS011;18726;44.732;10.550;2023-12-07T13:59:21;26.23;;;18.13;;
32236;SDS011;18726;44.732;10.550;2023-12-07T14:02:25;26.33;;;19.90;;
32236;SDS011;18726;44.732;10.550;2023-12-07T14:05:33;23.85;;;17.13;;
32236;SDS011;18726;44.732;10.550;2023-12-07T14:08:37;22.42;;;18.35;;
32236;SDS011;18726;44.732;10.550;2023-12-07T14:11:43;22.98;;;19.05;;
32236;SDS011;18726;44.732;10.550;2023-12-07T14:14:48;21.20;;;17.92;;
32236;SDS011;18726;44.732;10.550;2023-12-07T14:17:53;28.42;;;18.77;;
32236;SDS011;18726;44.732;10.550;2023-12-07T14:20:58;21.48;;;16.85;;
32236;SDS011;18726;44.732;10.550;2023-12-07T14:24:02;23.25;;;17.92;;
32236;SDS011;18726;44.732;10.550;2023-12-07T14:27:08;23.60;;;17.95;;
32236;SDS011;18726;44.732;10.550;2023-12-07T14:30:14;25.05;;;18.38;;
32236;SDS011;18726;44.732;10.550;2023-12-07T14:33:24;18.38;;;16.27;;
32236;SDS011;18726;44.732;10.550;2023-12-07T14:36:29;23.73;;;18.13;;
32236;SDS011;18726;44.732;10.550;2023-12-07T14:39:34;23.02;;;17.63;;
32236;SDS011;18726;44.732;10.550;2023-12-07T14:42:39;18.38;;;16.38;;
32236;SDS011;18726;44.732;10.550;2023-12-07T14:45:44;19.98;;;16.50;;
32236;SDS011;18726;44.732;10.550;2023-12-07T14:48:48;23.17;;;17.05;;
32236;SDS011;18726;44.732;10.550;2023-12-07T14:51:55;19.33;;;16.60;;
32236;SDS011;18726;44.732;10.550;2023-12-07T14:55:04;18.98;;;16.98;;
32236;SDS011;18726;44.732;10.550;2023-12-07T14:58:11;21.58;;;17.00;;
32236;SDS011;18726;44.732;10.550;2023-12-07T15:01:14;24.88;;;17.48;;
32236;SDS011;18726;44.732;10.550;2023-12-07T15:04:18;18.08;;;15.93;;
32236;SDS011;18726;44.732;10.550;2023-12-07T15:07:24;21.92;;;17.02;;
32236;SDS011;18726;44.732;10.550;2023-12-07T15:10:28;23.33;;;17.38;;
32236;SDS011;18726;44.732;10.550;2023-12-07T15:13:35;25.00;;;16.42;;
32236;SDS011;18726;44.732;10.550;2023-12-07T15:16:40;21.90;;;16.75;;
32236;SDS011;18726;44.732;10.550;2023-12-07T15:19:45;17.33;;;15.52;;
32236;SDS011;18726;44.732;10.550;2023-12-07T15:22:51;25.80;;;17.52;;
32236;SDS011;18726;44.732;10.550;2023-12-07T15:25:58;21.67;;;16.95;;
32236;SDS011;18726;44.732;10.550;2023-12-07T15:29:02;24.80;;;18.63;;
32236;SDS011;18726;44.732;10.550;2023-12-07T15:32:14;21.23;;;17.70;;
32236;SDS011;18726;44.732;10.550;2023-12-07T15:35:19;18.73;;;16.05;;
32236;SDS011;18726;44.732;10.550;2023-12-07T15:38:24;23.40;;;16.92;;
32236;SDS011;18726;44.732;10.550;2023-12-07T15:41:30;22.73;;;17.65;;
32236;SDS011;18726;44.732;10.550;2023-12-07T15:44:36;20.55;;;17.27;;
32236;SDS011;18726;44.732;10.550;2023-12-07T15:47:42;19.27;;;16.90;;
32236;SDS011;18726;44.732;10.550;2023-12-07T15:50:48;26.92;;;18.23;;
32236;SDS011;18726;44.732;10.550;2023-12-07T15:53:53;25.58;;;18.48;;
32236;SDS011;18726;44.732;10.550;2023-12-07T15:56:58;19.73;;;16.58;;
32236;SDS011;18726;44.732;10.550;2023-12-07T16:00:09;21.48;;;15.82;;
32236;SDS011;18726;44.732;10.550;2023-12-07T16:03:15;22.73;;;16.75;;
32236;SDS011;18726;44.732;10.550;2023-12-07T16:06:26;18.15;;;16.27;;
32236;SDS011;18726;44.732;10.550;2023-12-07T16:09:31;28.25;;;17.30;;
32236;SDS011;18726;44.732;10.550;2023-12-07T16:12:36;21.98;;;15.98;;
32236;SDS011;18726;44.732;10.550;2023-12-07T16:15:42;22.77;;;17.17;;
32236;SDS011;18726;44.732;10.550;2023-12-07T16:18:46;19.55;;;16.90;;
32236;SDS011;18726;44.732;10.550;2023-12-07T16:21:54;20.65;;;17.70;;
32236;SDS011;18726;44.732;10.550;2023-12-07T16:24:59;27.50;;;22.17;;
32236;SDS011;18726;44.732;10.550;2023-12-07T16:28:06;30.88;;;22.50;;
32236;SDS011;18726;44.732;10.550;2023-12-07T16:31:12;26.45;;;22.08;;
32236;SDS011;18726;44.732;10.550;2023-12-07T16:34:16;25.20;;;19.25;;
32236;SDS011;18726;44.732;10.550;2023-12-07T16:37:21;25.05;;;20.85;;
32236;SDS011;18726;44.732;10.550;2023-12-07T16:40:30;32.33;;;21.75;;
32236;SDS011;18726;44.732;10.550;2023-12-07T16:43:34;30.17;;;23.55;;
32236;SDS011;18726;44.732;10.550;2023-12-07T16:46:42;28.17;;;22.13;;
32236;SDS011;18726;44.732;10.550;2023-12-07T16:49:47;28.88;;;20.77;;
32236;SDS011;18726;44.732;10.550;2023-12-07T16:52:54;29.15;;;21.42;;
32236;SDS011;18726;44.732;10.550;2023-12-07T16:56:00;28.02;;;20.55;;
32236;SDS011;18726;44.732;10.550;2023-12-07T16:59:04;24.20;;;20.38;;
32236;SDS011;18726;44.732;10.550;2023-12-07T17:02:10;27.38;;;20.58;;
32236;SDS011;18726;44.732;10.550;2023-12-07T17:05:15;30.85;;;22.77;;
32236;SDS011;18726;44.732;10.550;2023-12-07T17:08:24;33.15;;;25.98;;
32236;SDS011;18726;44.732;10.550;2023-12-07T17:11:30;33.58;;;23.35;;
32236;SDS011;18726;44.732;10.550;2023-12-07T17:14:34;31.40;;;23.90;;
32236;SDS011;18726;44.732;10.550;2023-12-07T17:17:42;28.55;;;22.27;;
32236;SDS011;18726;44.732;10.550;2023-12-07T17:20:47;30.58;;;21.05;;
32236;SDS011;18726;44.732;10.550;2023-12-07T17:23:55;30.33;;;22.58;;
32236;SDS011;18726;44.732;10.550;2023-12-07T17:27:02;31.05;;;21.48;;
32236;SDS011;18726;44.732;10.550;2023-12-07T17:30:07;31.35;;;22.33;;
32236;SDS011;18726;44.732;10.550;2023-12-07T17:33:13;32.20;;;22.23;;
32236;SDS011;18726;44.732;10.550;2023-12-07T17:36:22;29.35;;;22.35;;
32236;SDS011;18726;44.732;10.550;2023-12-07T17:39:32;29.25;;;24.23;;
32236;SDS011;18726;44.732;10.550;2023-12-07T17:42:39;42.10;;;27.25;;
32236;SDS011;18726;44.732;10.550;2023-12-07T17:45:48;41.63;;;33.35;;
32236;SDS011;18726;44.732;10.550;2023-12-07T17:48:54;40.33;;;32.35;;
32236;SDS011;18726;44.732;10.550;2023-12-07T17:51:59;35.20;;;30.10;;
32236;SDS011;18726;44.732;10.550;2023-12-07T17:55:04;33.67;;;28.38;;
32236;SDS011;18726;44.732;10.550;2023-12-07T17:58:09;42.72;;;34.67;;
32236;SDS011;18726;44.732;10.550;2023-12-07T18:01:19;42.95;;;35.30;;
32236;SDS011;18726;44.732;10.550;2023-12-07T18:04:25;46.60;;;34.03;;
32236;SDS011;18726;44.732;10.550;2023-12-07T18:07:31;41.40;;;29.63;;